Time;durP1;ratioP1;P1;durP2;ratioP2;P2;SDS_P1;SDS_P2;PMS_P1;PMS_P2;Temp;Humidity;BMP_temperature;BMP_pressure;BME280_temperature;BME280_humidity;BME280_pressure;Samples;Min_cycle;Max_cycle;Signal;HPM_P1;HPM_P2
2022/01/28 00:00:28;;;;;;;8.30;6.40;;;;;;;2.54;100.00;152017.16;5053989;28;20549;-76
2022/01/28 00:03:07;;;;;;;6.90;5.43;;;;;;;2.51;100.00;152010.72;5070663;28;20875;-76
2022/01/28 00:05:43;;;;;;;7.80;6.10;;;;;;;2.46;100.00;151997.84;5057990;28;20448;-76
2022/01/28 00:08:19;;;;;;;9.17;6.33;;;;;;;2.49;100.00;152004.28;5065878;28;20793;-76
2022/01/28 00:10:55;;;;;;;7.40;6.20;;;;;;;2.48;100.00;152003.00;5104073;28;20444;-76
2022/01/28 00:13:35;;;;;;;8.80;6.07;;;;;;;2.54;100.00;152017.16;5088332;28;20550;-76
2022/01/28 00:19:50;;;;;;;8.23;5.10;;;;;;;2.57;100.00;152026.13;5102127;28;20793;-76
2022/01/28 00:44:18;;;;;;;5.33;4.70;;;;;;;2.62;100.00;152037.72;5102166;28;20459;-76
2022/01/28 00:46:54;;;;;;;7.67;4.60;;;;;;;2.62;100.00;152038.97;5101449;28;20440;-76
2022/01/28 00:49:29;;;;;;;6.47;5.03;;;;;;;2.64;100.00;152044.16;5070356;28;20437;-76
2022/01/28 00:52:05;;;;;;;6.80;4.97;;;;;;;2.68;100.00;152053.13;5104220;28;20444;-76
2022/01/28 00:54:40;;;;;;;9.27;5.80;;;;;;;2.65;100.00;152046.69;5101886;28;20469;-76
2022/01/28 00:57:16;;;;;;;7.30;5.63;;;;;;;2.67;100.00;152051.88;5103522;28;20439;-76
2022/01/28 00:59:53;;;;;;;6.73;4.90;;;;;;;2.65;100.00;152045.44;5087758;28;20492;-76
2022/01/28 01:02:29;;;;;;;7.50;4.90;;;;;;;2.71;100.00;152062.16;5103799;28;20438;-76
2022/01/28 01:05:05;;;;;;;7.23;5.13;;;;;;;2.69;100.00;152057.00;5068931;28;20448;-76
2022/01/28 01:07:41;;;;;;;8.33;5.50;;;;;;;2.74;100.00;152068.56;5054590;28;20447;-76
2022/01/28 01:10:16;;;;;;;6.50;5.20;;;;;;;2.72;100.00;152063.44;5069826;28;20452;-76
2022/01/28 01:12:52;;;;;;;8.20;5.40;;;;;;;2.71;100.00;152062.16;5071255;28;20472;-76
2022/01/28 01:15:33;;;;;;;7.13;4.47;;;;;;;2.66;100.00;152048.00;5073417;28;20455;-75
2022/01/28 01:18:15;;;;;;;5.63;4.10;;;;;;;2.61;100.00;152036.44;5058807;28;20457;-76
2022/01/28 01:21:01;;;;;;;8.27;5.10;;;;;;;2.55;100.00;152019.69;5072418;28;20451;-76
2022/01/28 01:23:39;;;;;;;7.10;4.40;;;;;;;2.60;100.00;152032.53;5071723;28;20512;-75
2022/01/28 01:26:15;;;;;;;5.73;4.87;;;;;;;2.53;100.00;152014.56;5106758;28;20443;-76
2022/01/28 01:28:50;;;;;;;6.47;4.67;;;;;;;2.52;100.00;152011.97;5107028;28;20444;-76
2022/01/28 01:31:28;;;;;;;7.80;5.40;;;;;;;2.53;100.00;152014.56;5089196;28;20452;-76
2022/01/28 01:34:10;;;;;;;6.00;4.80;;;;;;;2.49;100.00;152004.28;5091042;28;20465;-76
2022/01/28 01:36:46;;;;;;;5.77;4.53;;;;;;;2.47;100.00;152001.69;5057304;28;20464;-76
2022/01/28 01:39:24;;;;;;;5.57;4.23;;;;;;;2.42;100.00;151988.84;5105490;28;20805;-76
2022/01/28 01:42:08;;;;;;;5.30;4.53;;;;;;;2.37;100.00;151974.69;5073896;28;20521;-76
2022/01/28 01:45:26;;;;;;;5.40;4.23;;;;;;;2.29;100.00;151955.41;5071948;28;20444;-75
2022/01/28 01:53:41;;;;;;;6.03;4.60;;;;;;;2.34;100.00;151966.97;5069183;28;20448;-75
2022/01/28 01:56:16;;;;;;;8.10;5.47;;;;;;;2.22;100.00;151937.44;5106308;28;20549;-75
2022/01/28 01:58:52;;;;;;;7.40;4.90;;;;;;;2.24;100.00;151941.25;5071433;28;20460;-75
2022/01/28 02:01:27;;;;;;;8.07;5.10;;;;;;;2.20;100.00;151932.25;5072616;28;20447;-76
2022/01/28 02:04:05;;;;;;;6.97;4.77;;;;;;;2.19;100.00;151929.72;5071223;28;20431;-75
2022/01/28 02:06:41;;;;;;;6.03;4.97;;;;;;;2.23;100.00;151939.97;5105375;28;20546;-75
2022/01/28 02:09:16;;;;;;;6.80;4.90;;;;;;;2.18;100.00;151927.13;5056860;28;20435;-75
2022/01/28 02:11:52;;;;;;;7.90;5.63;;;;;;;2.17;100.00;151924.53;5057150;28;20505;-75
2022/01/28 02:14:28;;;;;;;7.07;5.40;;;;;;;2.13;100.00;151914.25;5105366;28;20475;-75
2022/01/28 02:17:05;;;;;;;6.03;4.97;;;;;;;2.21;100.00;151934.84;5100930;28;20435;-75
2022/01/28 02:19:42;;;;;;;7.47;5.07;;;;;;;2.15;100.00;151918.09;5106199;28;20524;-75
2022/01/28 02:22:20;;;;;;;6.57;5.00;;;;;;;2.19;100.00;151929.72;5055682;28;20471;-75
2022/01/28 02:24:56;;;;;;;7.80;4.90;;;;;;;2.16;100.00;151921.97;5105208;28;20474;-75
2022/01/28 02:27:32;;;;;;;6.27;4.90;;;;;;;2.16;100.00;151921.97;5072197;28;20461;-75
2022/01/28 02:30:11;;;;;;;5.63;4.73;;;;;;;2.15;100.00;151919.41;5106275;28;20452;-75
2022/01/28 02:32:48;;;;;;;7.37;5.20;;;;;;;2.20;100.00;151932.25;5071151;28;21001;-76
2022/01/28 02:35:24;;;;;;;6.17;4.37;;;;;;;2.19;100.00;151929.72;5104627;28;20471;-76
2022/01/28 02:38:01;;;;;;;6.40;4.70;;;;;;;2.17;100.00;151924.53;5106266;28;20451;-76
2022/01/28 02:40:37;;;;;;;5.20;4.60;;;;;;;2.11;100.00;151909.13;5105985;28;20451;-76
2022/01/28 02:43:27;;;;;;;7.40;5.30;;;;;;;2.08;100.00;151901.41;5105393;28;20501;-77
2022/01/28 02:46:07;;;;;;;7.30;4.87;;;;;;;2.00;100.00;151880.84;5069860;28;20944;-76
2022/01/28 02:48:53;;;;;;;6.23;4.63;;;;;;;2.01;100.00;151883.44;5106226;28;20444;-76
2022/01/28 02:51:29;;;;;;;8.20;4.60;;;;;;;1.96;100.00;151870.53;5071840;28;20440;-76
2022/01/28 02:54:14;;;;;;;6.03;4.60;;;;;;;1.98;100.00;151875.72;5103598;28;20979;-76
2022/01/28 02:56:52;;;;;;;6.10;4.83;;;;;;;1.96;100.00;151870.53;5104389;28;20432;-76
2022/01/28 02:59:27;;;;;;;6.30;4.83;;;;;;;1.90;100.00;151855.16;5070732;28;20805;-76
2022/01/28 03:02:03;;;;;;;5.13;4.30;;;;;;;1.88;100.00;151849.97;5071433;28;20530;-76
2022/01/28 03:05:03;;;;;;;6.40;5.10;;;;;;;1.89;100.00;151852.56;5070900;28;20543;-76
2022/01/28 03:07:38;;;;;;;7.17;5.00;;;;;;;1.84;100.00;151841.00;5056040;28;20534;-76
2022/01/28 03:10:29;;;;;;;6.70;4.40;;;;;;;1.84;100.00;151841.00;5105347;28;20475;-76
2022/01/28 03:13:27;;;;;;;6.97;5.20;;;;;;;1.88;100.00;151848.72;5102603;28;20820;-76
2022/01/28 03:16:09;;;;;;;6.67;5.10;;;;;;;1.86;100.00;151844.84;5104389;28;20448;-76
2022/01/28 03:18:52;;;;;;;5.97;4.20;;;;;;;1.88;100.00;151849.97;5075221;28;20451;-76
2022/01/28 03:21:42;;;;;;;6.47;4.63;;;;;;;1.90;100.00;151855.16;5072362;28;20451;-76
2022/01/28 03:24:18;;;;;;;5.93;4.73;;;;;;;1.90;100.00;151853.84;5058675;28;20440;-76
2022/01/28 03:27:00;;;;;;;6.70;4.43;;;;;;;1.91;100.00;151857.69;5070833;28;20431;-76
2022/01/28 03:29:36;;;;;;;7.30;4.50;;;;;;;1.95;100.00;151868.00;5104748;28;20530;-76
2022/01/28 03:32:11;;;;;;;5.80;4.87;;;;;;;1.96;100.00;151870.53;5102638;28;20451;-76
2022/01/28 03:34:47;;;;;;;5.70;4.60;;;;;;;1.96;100.00;151870.53;5101504;28;20474;-76
2022/01/28 03:37:23;;;;;;;6.27;4.50;;;;;;;1.94;100.00;151865.41;5105553;28;20431;-76
2022/01/28 03:40:00;;;;;;;6.17;4.37;;;;;;;1.97;100.00;151873.13;5070379;28;20459;-75
2022/01/28 03:42:38;;;;;;;5.70;4.57;;;;;;;1.98;100.00;151875.72;5071431;28;20433;-76
2022/01/28 03:45:13;;;;;;;6.37;4.97;;;;;;;2.00;100.00;151879.56;5067611;28;20452;-76
2022/01/28 03:47:49;;;;;;;6.50;4.50;;;;;;;1.99;100.00;151876.97;5070944;28;20641;-76
2022/01/28 03:50:25;;;;;;;7.70;4.30;;;;;;;2.00;100.00;151880.84;5063487;28;20938;-76
2022/01/28 03:53:00;;;;;;;8.80;5.13;;;;;;;2.08;100.00;151901.41;5065885;28;20759;-76
2022/01/28 03:55:36;;;;;;;4.77;4.03;;;;;;;2.10;100.00;151905.25;5088114;28;20575;-76
2022/01/28 03:58:13;;;;;;;6.23;4.40;;;;;;;2.07;100.00;151898.81;5071443;28;20468;-76
2022/01/28 04:00:50;;;;;;;5.87;4.97;;;;;;;2.11;100.00;151909.13;5054548;28;20548;-76
2022/01/28 04:12:01;;;;;;;6.30;4.20;;;;;;;2.13;100.00;151914.25;5088942;28;20442;-76
2022/01/28 04:14:45;;;;;;;6.10;4.50;;;;;;;2.17;100.00;151924.53;5070809;28;20972;-76
2022/01/28 04:17:21;;;;;;;7.80;5.33;;;;;;;2.17;100.00;151924.53;5070440;28;20457;-76
2022/01/28 04:19:57;;;;;;;7.67;5.03;;;;;;;2.17;100.00;151924.53;5068902;28;20660;-76
2022/01/28 04:22:32;;;;;;;7.47;5.00;;;;;;;2.17;100.00;151924.53;5070265;28;20518;-76
2022/01/28 04:25:08;;;;;;;5.43;4.30;;;;;;;2.20;100.00;151930.94;5103715;28;20814;-77
2022/01/28 04:27:43;;;;;;;8.40;4.87;;;;;;;2.19;100.00;151929.72;5070384;28;20563;-77
2022/01/28 04:30:20;;;;;;;6.27;5.30;;;;;;;2.12;100.00;151911.69;5055531;28;20436;-76
2022/01/28 04:32:55;;;;;;;5.50;4.70;;;;;;;2.12;100.00;151910.44;5087315;28;20448;-76
2022/01/28 04:35:31;;;;;;;10.53;5.40;;;;;;;2.14;100.00;151916.84;5034007;28;20500;-76
2022/01/28 04:38:19;;;;;;;6.27;4.47;;;;;;;2.13;100.00;151914.25;5051875;28;20448;-76
2022/01/28 04:41:03;;;;;;;6.03;4.47;;;;;;;2.12;100.00;151911.69;5070800;28;20471;-77
2022/01/28 04:43:44;;;;;;;7.53;5.20;;;;;;;2.11;100.00;151907.84;5053206;28;20953;-75
2022/01/28 04:46:31;;;;;;;6.40;4.67;;;;;;;2.10;100.00;151906.53;5104379;28;20475;-76
2022/01/28 04:49:12;;;;;;;7.57;5.67;;;;;;;2.09;100.00;151903.94;5058111;28;20420;-76
2022/01/28 04:52:07;;;;;;;6.23;4.70;;;;;;;2.05;100.00;151893.69;5108300;28;20438;-76
2022/01/28 04:54:58;;;;;;;8.77;5.87;;;;;;;2.02;100.00;151885.97;5103793;28;20474;-76
2022/01/28 04:57:44;;;;;;;7.13;4.90;;;;;;;2.02;100.00;151885.97;5072501;28;20448;-76
2022/01/28 05:00:28;;;;;;;9.10;5.57;;;;;;;2.08;100.00;151900.13;5108077;28;20443;-76
2022/01/28 05:03:33;;;;;;;8.30;5.17;;;;;;;2.06;100.00;151896.28;5063578;28;20445;-76
2022/01/28 05:24:20;;;;;;;8.93;5.27;;;;;;;1.95;100.00;151866.69;5046977;28;20449;-76
2022/01/28 05:26:58;;;;;;;5.97;4.60;;;;;;;1.91;100.00;151857.69;5106986;28;20478;-76
2022/01/28 05:29:34;;;;;;;7.90;4.70;;;;;;;1.92;100.00;151858.97;5106957;28;20438;-76
2022/01/28 05:32:10;;;;;;;7.03;4.97;;;;;;;1.91;100.00;151857.69;5071668;28;20470;-76
2022/01/28 05:34:47;;;;;;;8.63;5.40;;;;;;;1.88;100.00;151849.97;5056723;28;20826;-76
2022/01/28 05:37:22;;;;;;;9.93;5.37;;;;;;;1.86;100.00;151844.84;5070907;28;20545;-76
2022/01/28 05:39:57;;;;;;;7.07;4.90;;;;;;;1.85;100.00;151842.28;5054165;28;20550;-76
2022/01/28 05:42:34;;;;;;;7.20;4.93;;;;;;;1.80;100.00;151829.44;5072832;28;20481;-76
2022/01/28 05:45:10;;;;;;;7.07;4.60;;;;;;;1.83;100.00;151837.13;5106705;28;20455;-75
2022/01/28 05:47:45;;;;;;;6.83;4.90;;;;;;;1.80;100.00;151829.44;5058225;28;20446;-76
2022/01/28 05:50:23;;;;;;;6.97;4.73;;;;;;;1.80;100.00;151829.44;5070327;28;20458;-75
2022/01/28 05:52:58;;;;;;;8.23;5.70;;;;;;;1.80;100.00;151829.44;5057334;28;20434;-76
2022/01/28 05:55:34;;;;;;;9.10;5.63;;;;;;;1.75;100.00;151816.56;5077337;28;20470;-76
2022/01/28 05:58:10;;;;;;;8.23;5.77;;;;;;;1.73;100.00;151811.41;5064940;28;20574;-76
2022/01/28 06:00:46;;;;;;;9.57;6.20;;;;;;;1.72;100.00;151810.13;5069687;28;20454;-76
2022/01/28 06:03:21;;;;;;;6.37;4.80;;;;;;;1.73;100.00;151812.72;5104712;28;20517;-76
2022/01/28 06:05:58;;;;;;;8.00;5.53;;;;;;;1.70;100.00;151805.00;5070763;28;20777;-75
2022/01/28 06:08:35;;;;;;;6.50;5.00;;;;;;;1.68;100.00;151798.56;5104990;28;20431;-76
2022/01/28 06:11:10;;;;;;;7.00;4.90;;;;;;;1.63;100.00;151785.72;5071122;28;20457;-76
2022/01/28 06:13:46;;;;;;;8.57;4.93;;;;;;;1.62;100.00;151784.44;5068001;28;20474;-75
2022/01/28 06:16:22;;;;;;;8.03;5.60;;;;;;;1.65;100.00;151790.84;5104936;28;20472;-76
2022/01/28 06:18:57;;;;;;;5.97;4.53;;;;;;;1.66;100.00;151793.44;5105246;28;20778;-76
2022/01/28 06:21:34;;;;;;;8.63;5.70;;;;;;;1.66;100.00;151793.44;5105307;28;20450;-76
2022/01/28 06:24:10;;;;;;;9.40;5.73;;;;;;;1.65;100.00;151790.84;5064840;28;20742;-76
2022/01/28 06:26:47;;;;;;;6.73;5.30;;;;;;;1.62;100.00;151784.44;5094839;28;20571;-76
2022/01/28 06:29:22;;;;;;;6.57;5.47;;;;;;;1.61;100.00;151781.91;5086695;28;20450;-75
2022/01/28 06:31:58;;;;;;;5.60;4.87;;;;;;;1.59;100.00;151775.47;5055412;28;20450;-76
2022/01/28 06:34:34;;;;;;;7.77;4.90;;;;;;;1.57;100.00;151771.59;5054601;28;20466;-76
2022/01/28 06:37:10;;;;;;;7.57;4.60;;;;;;;1.60;100.00;151779.31;5070711;28;20438;-76
2022/01/28 06:39:46;;;;;;;6.97;4.40;;;;;;;1.64;100.00;151788.31;5070997;28;20462;-76
2022/01/28 06:42:21;;;;;;;5.03;4.50;;;;;;;1.61;100.00;151780.59;5072143;28;20445;-75
2022/01/28 06:44:57;;;;;;;6.57;5.60;;;;;;;1.66;100.00;151793.44;5070765;28;20439;-76
2022/01/28 06:47:35;;;;;;;6.10;4.90;;;;;;;1.63;100.00;151785.72;5070519;28;20828;-76
2022/01/28 06:50:11;;;;;;;9.40;5.67;;;;;;;1.60;100.00;151778.00;5072345;28;20840;-76
2022/01/28 06:52:47;;;;;;;8.23;5.80;;;;;;;1.59;100.00;151776.72;5054571;28;20469;-76
2022/01/28 06:55:23;;;;;;;7.50;5.50;;;;;;;1.59;100.00;151776.72;5103452;28;20470;-76
2022/01/28 06:57:59;;;;;;;7.03;5.00;;;;;;;1.59;100.00;151775.47;5065850;28;20438;-76
2022/01/28 07:00:37;;;;;;;9.10;6.17;;;;;;;1.58;100.00;151774.19;5084090;28;20488;-75
2022/01/28 07:03:14;;;;;;;8.00;5.77;;;;;;;1.57;100.00;151771.59;5053107;28;20445;-76
2022/01/28 07:05:50;;;;;;;8.53;5.73;;;;;;;1.57;100.00;151771.59;5052447;28;20438;-77
2022/01/28 07:08:28;;;;;;;9.33;5.10;;;;;;;1.59;100.00;151775.47;5053153;28;20441;-76
2022/01/28 07:11:04;;;;;;;9.27;6.47;;;;;;;1.58;100.00;151774.19;5067388;28;20449;-76
2022/01/28 07:13:39;;;;;;;8.40;5.83;;;;;;;1.57;100.00;151770.28;5069845;28;20469;-76
2022/01/28 07:16:15;;;;;;;8.13;6.23;;;;;;;1.55;100.00;151765.16;5070120;28;20474;-76
2022/01/28 07:18:50;;;;;;;8.00;6.33;;;;;;;1.54;100.00;151762.56;5053601;28;20529;-77
2022/01/28 07:21:26;;;;;;;10.90;6.70;;;;;;;1.55;100.00;151765.16;5065650;28;20801;-75
2022/01/28 07:24:03;;;;;;;9.63;6.50;;;;;;;1.52;100.00;151757.44;5071135;28;20468;-75
2022/01/28 07:26:38;;;;;;;9.40;6.50;;;;;;;1.51;100.00;151756.16;5096298;28;20541;-75
2022/01/28 07:29:14;;;;;;;8.20;5.90;;;;;;;1.56;100.00;151767.75;5065469;28;20438;-75
2022/01/28 07:31:50;;;;;;;8.43;6.10;;;;;;;1.53;100.00;151760.03;5102734;28;20437;-75
2022/01/28 07:34:25;;;;;;;9.77;6.73;;;;;;;1.49;100.00;151751.03;5084255;28;20464;-75
2022/01/28 07:37:01;;;;;;;8.43;6.13;;;;;;;1.50;100.00;151752.31;5069199;28;20438;-75
2022/01/28 07:39:38;;;;;;;9.40;6.40;;;;;;;1.50;100.00;151753.63;5050817;28;20560;-75
2022/01/28 07:42:13;;;;;;;8.90;6.83;;;;;;;1.54;100.00;151762.56;5070273;28;20804;-75
2022/01/28 07:44:49;;;;;;;7.93;6.20;;;;;;;1.60;100.00;151778.00;5067695;28;20448;-76
2022/01/28 07:47:24;;;;;;;8.73;6.50;;;;;;;1.64;100.00;151788.31;5070653;28;20437;-75
2022/01/28 07:50:00;;;;;;;8.17;6.40;;;;;;;1.69;100.00;151802.47;5069943;28;20446;-75
2022/01/28 07:52:35;;;;;;;7.33;5.93;;;;;;;1.73;100.00;151811.41;5082609;28;20532;-76
2022/01/28 07:55:14;;;;;;;10.43;6.33;;;;;;;1.78;100.00;151824.25;5069921;28;20478;-75
2022/01/28 07:57:49;;;;;;;9.73;5.60;;;;;;;1.79;100.00;151828.16;5082248;28;20771;-75
2022/01/28 08:00:27;;;;;;;9.87;6.83;;;;;;;1.80;100.00;151829.44;5086874;28;20446;-75
2022/01/28 08:03:02;;;;;;;11.80;7.70;;;;;;;1.83;100.00;151837.13;5055047;28;20434;-75
2022/01/28 08:05:38;;;;;;;8.30;6.00;;;;;;;1.90;100.00;151853.84;5063204;28;20940;-75
2022/01/28 08:08:18;;;;;;;10.17;6.60;;;;;;;1.90;100.00;151855.16;5104449;28;20809;-75
2022/01/28 08:10:55;;;;;;;9.03;6.50;;;;;;;1.90;100.00;151855.16;5103067;28;20455;-75
2022/01/28 08:13:31;;;;;;;8.77;6.53;;;;;;;1.95;100.00;151868.00;5072157;28;20459;-75
2022/01/28 08:16:06;;;;;;;7.50;5.70;;;;;;;1.98;100.00;151875.72;5104637;28;20474;-75
2022/01/28 08:18:42;;;;;;;8.40;6.57;;;;;;;1.99;100.00;151878.25;5070700;28;20446;-75
2022/01/28 08:21:17;;;;;;;8.70;6.03;;;;;;;2.00;100.00;151880.84;5055457;28;20458;-75
2022/01/28 08:23:53;;;;;;;7.80;6.40;;;;;;;2.05;100.00;151893.69;5111094;28;20819;-76
2022/01/28 08:26:30;;;;;;;7.63;5.93;;;;;;;2.07;100.00;151898.81;5110591;28;20448;-75
2022/01/28 08:29:06;;;;;;;8.17;6.00;;;;;;;2.08;100.00;151901.41;5102079;28;20534;-75
2022/01/28 08:31:42;;;;;;;10.43;6.77;;;;;;;2.14;100.00;151916.84;5098527;28;20438;-75
2022/01/28 08:34:17;;;;;;;10.47;6.70;;;;;;;2.18;100.00;151925.81;5077332;28;20454;-75
2022/01/28 08:36:53;;;;;;;9.33;6.27;;;;;;;2.18;100.00;151927.13;5109646;28;20989;-75
2022/01/28 08:39:28;;;;;;;11.47;6.00;;;;;;;2.19;100.00;151928.41;5060283;28;20439;-75
2022/01/28 08:42:06;;;;;;;8.83;6.40;;;;;;;2.24;100.00;151941.25;5094444;28;20443;-75
2022/01/28 08:44:42;;;;;;;9.23;6.20;;;;;;;2.26;100.00;151947.69;5076444;28;20921;-75
2022/01/28 08:47:17;;;;;;;9.10;6.53;;;;;;;2.25;100.00;151945.09;5076978;28;20434;-76
2022/01/28 08:49:53;;;;;;;7.30;5.87;;;;;;;2.30;100.00;151957.94;5110188;28;20445;-75
2022/01/28 08:52:28;;;;;;;9.43;5.40;;;;;;;2.32;100.00;151963.13;5078146;28;20529;-75
2022/01/28 08:55:05;;;;;;;9.53;6.10;;;;;;;2.31;100.00;151959.25;5076153;28;20520;-75
2022/01/28 08:57:43;;;;;;;8.33;6.27;;;;;;;2.31;100.00;151960.53;5077794;28;20445;-75
2022/01/28 09:00:19;;;;;;;8.80;6.20;;;;;;;2.38;100.00;151978.53;5110687;28;20447;-75
2022/01/28 09:02:54;;;;;;;6.47;5.10;;;;;;;2.43;100.00;151990.13;5110426;28;20527;-75
2022/01/28 09:05:30;;;;;;;11.03;6.40;;;;;;;2.49;100.00;152004.28;5073353;28;20632;-75
2022/01/28 09:08:08;;;;;;;7.70;5.13;;;;;;;2.51;100.00;152009.41;5076433;28;20440;-76
2022/01/28 09:10:46;;;;;;;6.83;4.87;;;;;;;2.52;100.00;152013.25;5041939;28;20448;-76
2022/01/28 09:13:24;;;;;;;8.73;5.63;;;;;;;2.58;100.00;152028.72;5083424;28;20467;-76
2022/01/28 09:15:59;;;;;;;8.77;5.37;;;;;;;2.65;100.00;152046.69;5075983;28;20476;-76
2022/01/28 09:18:35;;;;;;;6.37;4.90;;;;;;;2.64;100.00;152044.16;5094314;28;20449;-76
2022/01/28 09:21:11;;;;;;;7.47;5.10;;;;;;;2.68;100.00;152053.13;5078040;28;20429;-76
2022/01/28 09:23:46;;;;;;;5.90;4.83;;;;;;;2.71;100.00;152060.84;5104623;28;20456;-76
2022/01/28 09:26:22;;;;;;;8.00;4.73;;;;;;;2.80;100.00;152085.31;5075976;28;20943;-76
2022/01/28 09:28:59;;;;;;;6.87;4.90;;;;;;;2.88;100.00;152104.59;5061278;28;20432;-75
2022/01/28 09:31:35;;;;;;;7.47;4.70;;;;;;;2.96;100.00;152125.19;5059878;28;20441;-76
2022/01/28 09:34:10;;;;;;;6.00;5.00;;;;;;;3.03;100.00;152144.47;5068027;28;20436;-76
2022/01/28 09:36:46;;;;;;;7.73;4.80;;;;;;;3.11;100.00;152163.78;5087449;28;20463;-76
2022/01/28 09:39:22;;;;;;;8.40;4.90;;;;;;;3.15;100.00;152174.03;5072395;28;20523;-76
2022/01/28 09:42:02;;;;;;;5.97;4.80;;;;;;;3.19;100.00;152184.38;5103990;28;20437;-76
2022/01/28 09:44:40;;;;;;;6.00;3.90;;;;;;;3.27;100.00;152204.97;5087150;28;20995;-76
2022/01/28 09:47:16;;;;;;;6.63;3.80;;;;;;;3.42;100.00;152243.56;5069897;28;20457;-76
2022/01/28 09:49:52;;;;;;;10.53;4.40;;;;;;;3.57;100.00;152282.16;5071514;28;20552;-75
2022/01/28 09:52:28;;;;;;;6.10;3.90;;;;;;;3.78;100.00;152334.97;5088284;28;20486;-76
2022/01/28 09:55:03;;;;;;;8.33;3.13;;;;;;;3.94;98.74;152376.19;5106113;28;21126;-76
2022/01/28 09:57:39;;;;;;;4.00;3.00;;;;;;;4.03;95.66;152398.03;5105718;28;20425;-76
2022/01/28 10:00:16;;;;;;;5.57;3.40;;;;;;;4.08;98.69;152410.91;5105562;28;20448;-76
2022/01/28 10:02:54;;;;;;;5.10;2.90;;;;;;;4.20;97.70;152443.16;5105652;28;20445;-76
2022/01/28 10:05:32;;;;;;;3.20;2.53;;;;;;;4.16;98.35;152431.53;5106157;28;20455;-76
2022/01/28 10:08:10;;;;;;;4.10;2.67;;;;;;;4.22;98.39;152447.00;5104842;28;20652;-76
2022/01/28 10:10:49;;;;;;;4.03;2.70;;;;;;;4.30;97.37;152467.59;5058583;28;20486;-76
2022/01/28 10:13:30;;;;;;;5.80;2.87;;;;;;;4.26;95.25;152458.56;5070923;28;20477;-76
2022/01/28 10:16:12;;;;;;;3.90;2.80;;;;;;;4.30;95.94;152468.91;5106823;28;20458;-76
2022/01/28 10:18:51;;;;;;;3.73;2.10;;;;;;;4.27;97.71;152459.88;5086610;28;20448;-76
2022/01/28 10:21:32;;;;;;;2.73;2.00;;;;;;;4.25;96.27;152454.72;5097137;28;20446;-76
2022/01/28 10:24:13;;;;;;;3.87;2.10;;;;;;;4.29;95.72;152466.31;5071599;28;20437;-76
2022/01/28 10:26:50;;;;;;;2.80;2.00;;;;;;;4.38;93.14;152488.22;5104073;28;20438;-76
2022/01/28 10:29:27;;;;;;;3.43;1.67;;;;;;;4.40;94.08;152492.06;5090505;28;20524;-76
2022/01/28 10:32:06;;;;;;;6.27;2.23;;;;;;;4.43;94.45;152499.78;5105579;28;20441;-76
2022/01/28 10:34:44;;;;;;;3.07;2.07;;;;;;;4.35;95.55;152480.47;5106091;28;20449;-76
2022/01/28 10:37:21;;;;;;;5.67;2.50;;;;;;;4.32;95.29;152472.75;5102127;28;20461;-76
2022/01/28 10:39:59;;;;;;;5.90;2.00;;;;;;;4.36;93.55;152483.06;5060994;28;20532;-76
2022/01/28 10:42:36;;;;;;;3.37;1.97;;;;;;;4.44;91.86;152503.69;5056897;28;20985;-76
2022/01/28 10:45:14;;;;;;;2.90;1.90;;;;;;;4.45;94.65;152504.97;5070856;28;20860;-76
2022/01/28 10:47:53;;;;;;;4.40;2.00;;;;;;;4.40;93.49;152492.06;5089635;28;20437;-76
2022/01/28 10:50:31;;;;;;;4.60;2.70;;;;;;;4.44;94.60;152503.69;5072370;28;20450;-76
2022/01/28 10:53:08;;;;;;;3.43;2.63;;;;;;;4.50;90.67;152519.09;5103027;28;20426;-76
2022/01/28 10:55:46;;;;;;;7.47;2.67;;;;;;;4.49;90.83;152516.56;5103842;28;20540;-76
2022/01/28 10:58:24;;;;;;;3.17;1.80;;;;;;;4.47;92.88;152510.13;5105860;28;20442;-76
2022/01/28 11:01:00;;;;;;;3.20;2.00;;;;;;;4.41;93.75;152495.94;5106120;28;20498;-76
2022/01/28 11:03:40;;;;;;;4.57;2.27;;;;;;;4.49;92.87;152516.56;5101602;28;20449;-76
2022/01/28 11:06:16;;;;;;;4.47;1.80;;;;;;;4.53;90.16;152526.84;5089539;28;20430;-76
2022/01/28 11:08:51;;;;;;;6.87;1.90;;;;;;;4.61;89.33;152546.16;5104798;28;20440;-76
2022/01/28 11:11:27;;;;;;;2.93;1.67;;;;;;;4.64;88.47;152553.91;5070643;28;20461;-76
2022/01/28 11:14:03;;;;;;;2.57;1.60;;;;;;;4.67;86.99;152562.94;5047377;28;20461;-76
2022/01/28 11:16:40;;;;;;;2.10;1.60;;;;;;;4.55;91.61;152530.72;5056460;28;20465;-75
2022/01/28 11:19:18;;;;;;;3.30;2.07;;;;;;;4.58;89.31;152539.72;5089355;28;20552;-76
2022/01/28 11:22:25;;;;;;;3.10;1.80;;;;;;;4.61;90.32;152546.16;5088597;28;20951;-76
2022/01/28 11:25:27;;;;;;;2.47;1.70;;;;;;;4.57;88.83;152535.88;5062841;28;20485;-76
2022/01/28 11:28:08;;;;;;;8.20;1.80;;;;;;;4.50;85.98;152517.84;5070796;28;20826;-76
2022/01/28 11:30:48;;;;;;;2.40;1.77;;;;;;;4.48;89.65;152513.97;5074349;28;20449;-76
2022/01/28 11:33:42;;;;;;;2.67;1.53;;;;;;;4.40;90.33;152493.34;5103905;28;20445;-75
2022/01/28 11:36:33;;;;;;;7.77;2.00;;;;;;;4.49;87.39;152515.25;5104809;28;20478;-76
2022/01/28 11:39:29;;;;;;;5.03;1.97;;;;;;;4.55;87.94;152532.03;5088224;28;20485;-76
2022/01/28 11:42:07;;;;;;;5.57;2.33;;;;;;;4.63;89.45;152551.34;5045289;28;20829;-76
2022/01/28 11:44:44;;;;;;;3.80;2.10;;;;;;;4.75;87.14;152582.25;5087524;28;20909;-76
2022/01/28 11:47:22;;;;;;;5.97;2.20;;;;;;;4.79;87.71;152593.84;5070044;28;20824;-76
2022/01/28 11:50:00;;;;;;;3.67;2.10;;;;;;;4.81;83.33;152599.03;5086263;28;20465;-76
2022/01/28 11:52:40;;;;;;;4.83;2.23;;;;;;;4.84;84.16;152606.72;5103065;28;20841;-76
2022/01/28 11:55:32;;;;;;;2.90;1.80;;;;;;;4.80;89.78;152596.44;5103503;28;20450;-76
2022/01/28 11:58:11;;;;;;;2.93;1.83;;;;;;;4.74;86.21;152579.66;5086972;28;20466;-76
2022/01/28 12:00:49;;;;;;;2.50;1.90;;;;;;;4.70;88.50;152570.66;5070069;28;20456;-76
2022/01/28 12:03:26;;;;;;;3.83;2.20;;;;;;;4.70;87.34;152570.66;5104244;28;20446;-76
2022/01/28 12:06:07;;;;;;;3.47;2.43;;;;;;;4.70;88.14;152569.38;5053632;28;20481;-76
2022/01/28 12:08:45;;;;;;;5.50;2.30;;;;;;;4.65;88.33;152557.78;5085072;28;20533;-76
2022/01/28 12:11:44;;;;;;;2.57;2.13;;;;;;;4.72;84.03;152575.81;5102400;28;20446;-76
2022/01/28 12:14:20;;;;;;;3.67;2.57;;;;;;;4.71;84.99;152573.22;5104464;28;20461;-76
2022/01/28 12:16:57;;;;;;;3.60;2.23;;;;;;;4.67;84.15;152562.94;5102103;28;20559;-76
2022/01/28 12:19:33;;;;;;;4.63;1.77;;;;;;;4.63;88.82;152552.59;5055005;28;20461;-75
2022/01/28 12:22:10;;;;;;;5.47;1.93;;;;;;;4.53;86.11;152525.53;5104110;28;20434;-76
2022/01/28 12:24:47;;;;;;;3.27;1.70;;;;;;;4.53;84.79;152526.84;5087435;28;20446;-76
2022/01/28 12:27:24;;;;;;;1.93;1.43;;;;;;;4.54;86.06;152528.13;5067916;28;20438;-76
2022/01/28 12:30:00;;;;;;;3.73;1.73;;;;;;;4.54;83.78;152529.44;5103586;28;20791;-76
2022/01/28 12:32:37;;;;;;;6.90;2.10;;;;;;;4.61;81.53;152547.47;5104547;28;20789;-76
2022/01/28 12:35:13;;;;;;;2.97;2.20;;;;;;;4.66;83.62;152560.34;5103345;28;20936;-76
2022/01/28 12:37:59;;;;;;;4.93;2.20;;;;;;;4.50;81.45;152519.09;5104585;28;20477;-76
2022/01/28 12:40:46;;;;;;;4.13;2.13;;;;;;;4.41;82.36;152495.94;5069972;28;20469;-75
2022/01/28 12:43:24;;;;;;;7.57;2.63;;;;;;;4.35;83.74;152480.47;5086309;28;20782;-76
2022/01/28 12:46:01;;;;;;;2.90;2.17;;;;;;;4.37;81.08;152485.63;5086103;28;20588;-76
2022/01/28 12:48:36;;;;;;;3.07;2.13;;;;;;;4.42;82.91;152498.50;5104706;28;20925;-76
2022/01/28 12:51:14;;;;;;;2.67;1.87;;;;;;;4.46;83.74;152508.81;5054994;28;20449;-76
2022/01/28 12:53:54;;;;;;;4.57;2.30;;;;;;;4.41;80.73;152495.94;5102286;28;20445;-76
2022/01/28 12:56:32;;;;;;;3.90;2.20;;;;;;;4.45;86.34;152504.97;5095960;28;20469;-76
2022/01/28 12:59:10;;;;;;;4.93;2.40;;;;;;;4.51;84.07;152521.69;5054294;28;20524;-76
2022/01/28 13:01:51;;;;;;;3.47;2.50;;;;;;;4.55;81.90;152530.72;5084808;28;20442;-76
2022/01/28 13:04:48;;;;;;;4.23;2.90;;;;;;;4.59;80.45;152542.31;5064954;28;20476;-76
2022/01/28 13:10:20;;;;;;;5.30;2.60;;;;;;;4.56;86.50;152534.59;5101580;28;20441;-76
2022/01/28 13:13:05;;;;;;;3.27;2.97;;;;;;;4.59;85.08;152541.03;5072596;28;20487;-76
2022/01/28 13:15:41;;;;;;;4.67;3.20;;;;;;;4.58;87.38;152539.72;5057698;28;20442;-76
2022/01/28 13:18:17;;;;;;;7.90;4.00;;;;;;;4.56;86.36;152533.28;5072807;28;20461;-76